createdAt,value
2023-01-02T00:01:09.367Z,99595.38
2023-01-02T00:03:37.115Z,99597.91
2023-01-02T00:06:06.558Z,99602.28
2023-01-02T00:08:34.592Z,99581.56
2023-01-02T00:11:02.285Z,99591.53
2023-01-02T00:13:30.094Z,99596.84
2023-01-02T00:15:57.803Z,99585.03
2023-01-02T00:18:25.507Z,99601.66
2023-01-02T00:20:53.204Z,99592.47
2023-01-02T00:23:20.848Z,99595.53
2023-01-02T00:25:52.807Z,99595.81
2023-01-02T00:28:20.471Z,99598.94
2023-01-02T00:30:48.083Z,99582.84
2023-01-02T00:33:16.750Z,99569.31
2023-01-02T00:35:44.409Z,99587.59
2023-01-02T00:38:12.068Z,99589.00
2023-01-02T00:40:40.158Z,99588.78
2023-01-02T00:43:07.796Z,99587.09
2023-01-02T00:45:35.465Z,99584.03
2023-01-02T00:48:03.203Z,99562.25
2023-01-02T00:50:30.839Z,99588.56
2023-01-02T00:52:58.564Z,99589.41
2023-01-02T00:55:26.209Z,99594.09
2023-01-02T00:57:53.892Z,99576.88
2023-01-02T01:00:24.087Z,99587.94
2023-01-02T01:02:55.709Z,99589.03
2023-01-02T01:05:23.392Z,99558.91
2023-01-02T01:07:51.132Z,99590.44
2023-01-02T01:10:18.847Z,99562.00
2023-01-02T01:12:46.465Z,99587.47
2023-01-02T01:15:14.173Z,99583.00
2023-01-02T01:17:41.888Z,99583.34
2023-01-02T01:20:10.268Z,99584.41
2023-01-02T01:22:37.943Z,99577.47
2023-01-02T01:25:06.114Z,99578.47
2023-01-02T01:27:33.790Z,99569.03
2023-01-02T01:30:01.462Z,99565.13
2023-01-02T01:32:30.239Z,99573.19
2023-01-02T01:34:57.885Z,99567.53
2023-01-02T01:37:25.635Z,99544.03
2023-01-02T01:39:56.613Z,99539.69
2023-01-02T01:42:24.576Z,99553.81
2023-01-02T01:44:54.712Z,99563.75
2023-01-02T01:47:40.859Z,99560.09
2023-01-02T01:50:37.808Z,99555.97
2023-01-02T01:53:11.188Z,99557.66
2023-01-02T01:55:47.179Z,99549.53
2023-01-02T01:58:20.164Z,99549.84
2023-01-02T02:00:48.820Z,99551.22
2023-01-02T02:03:21.860Z,99531.66
2023-01-02T02:05:51.528Z,99548.28
2023-01-02T02:08:50.176Z,99543.28
2023-01-02T02:11:19.111Z,99546.88
2023-01-02T02:13:47.521Z,99546.81
2023-01-02T02:16:18.282Z,99538.00
2023-01-02T02:18:55.038Z,99543.84
2023-01-02T02:21:44.590Z,99541.84
2023-01-02T02:24:15.272Z,99540.38
2023-01-02T02:27:24.368Z,99532.28
2023-01-02T02:30:03.303Z,99534.78
2023-01-02T02:33:00.981Z,99509.41
2023-01-02T02:36:04.462Z,99525.34
2023-01-02T02:38:58.219Z,99528.66
2023-01-02T02:41:36.624Z,99524.81
2023-01-02T02:44:25.502Z,99518.16
2023-01-02T02:47:04.949Z,99516.78
2023-01-02T02:49:59.764Z,99518.16
2023-01-02T02:52:33.238Z,99515.13
2023-01-02T02:55:03.688Z,99507.66
2023-01-02T02:57:32.618Z,99516.75
2023-01-02T03:00:00.314Z,99506.78
2023-01-02T03:02:28.207Z,99514.84
2023-01-02T03:05:01.054Z,99511.88
2023-01-02T03:07:41.052Z,99496.81
2023-01-02T03:10:33.211Z,99502.06
2023-01-02T03:13:03.895Z,99501.50
2023-01-02T03:15:36.476Z,99501.53
2023-01-02T03:18:37.509Z,99502.22
2023-01-02T03:21:15.022Z,99502.50
2023-01-02T03:23:46.398Z,99508.53
2023-01-02T03:26:27.920Z,99499.06
2023-01-02T03:29:00.459Z,99500.47
2023-01-02T03:31:30.705Z,99501.97
2023-01-02T03:34:16.191Z,99500.53
2023-01-02T03:36:49.082Z,99501.09
2023-01-02T03:39:24.325Z,99497.66
2023-01-02T03:42:00.275Z,99494.88
2023-01-02T03:44:38.667Z,99495.34
2023-01-02T03:47:27.836Z,99487.03
2023-01-02T03:50:00.388Z,99490.09
2023-01-02T03:52:28.245Z,99495.94
2023-01-02T03:54:58.774Z,99490.41
2023-01-02T03:58:03.026Z,99501.78
2023-01-02T04:00:42.452Z,99486.09
2023-01-02T04:03:26.513Z,99475.41
2023-01-02T04:06:03.429Z,99498.31
2023-01-02T04:08:46.902Z,99492.16
2023-01-02T04:11:18.528Z,99487.69
2023-01-02T04:14:12.021Z,99494.56
2023-01-02T04:16:41.531Z,99487.97
2023-01-02T04:19:24.205Z,99481.03
2023-01-02T04:21:56.616Z,99471.41
2023-01-02T04:24:30.403Z,99485.47
2023-01-02T04:27:01.267Z,99488.22
2023-01-02T04:29:29.396Z,99489.63
2023-01-02T04:32:04.168Z,99487.41
2023-01-02T04:34:36.254Z,99472.78
2023-01-02T04:37:04.005Z,99481.31
2023-01-02T04:39:32.152Z,99474.13
2023-01-02T04:41:59.832Z,99481.38
2023-01-02T04:44:27.456Z,99489.09
2023-01-02T04:46:55.159Z,99497.69
2023-01-02T04:49:26.717Z,99475.34
2023-01-02T04:51:54.421Z,99492.75
2023-01-02T04:54:22.090Z,99497.44
2023-01-02T04:56:49.718Z,99502.75
2023-01-02T04:59:17.383Z,99483.44
2023-01-02T05:01:45.164Z,99502.19
2023-01-02T05:04:13.889Z,99498.09
2023-01-02T05:06:41.515Z,99500.53
2023-01-02T05:09:09.261Z,99506.63
2023-01-02T05:11:36.925Z,99513.91
2023-01-02T05:14:07.554Z,99482.38
2023-01-02T05:16:35.711Z,99513.56
2023-01-02T05:19:03.423Z,99506.38
2023-01-02T05:21:48.392Z,99506.75
2023-01-02T05:24:16.045Z,99514.47
2023-01-02T05:26:43.676Z,99511.13
2023-01-02T05:29:11.333Z,99510.84
2023-01-02T05:31:39.153Z,99522.25
2023-01-02T05:34:06.863Z,99502.59
2023-01-02T05:36:34.534Z,99504.53
2023-01-02T05:39:02.260Z,99503.94
2023-01-02T05:41:29.948Z,99516.69
2023-01-02T05:43:57.579Z,99517.81
2023-01-02T05:46:25.233Z,99446.69
2023-01-02T05:48:52.884Z,99514.34
2023-01-02T05:51:20.663Z,99528.63
2023-01-02T05:53:48.334Z,99518.66
2023-01-02T05:56:19.086Z,99521.63
2023-01-02T05:58:48.408Z,99531.63
2023-01-02T06:01:18.346Z,99503.69
2023-01-02T06:03:50.855Z,99534.44
2023-01-02T06:06:20.795Z,99516.25
2023-01-02T06:08:48.500Z,99524.81
2023-01-02T06:11:16.607Z,99539.19
2023-01-02T06:13:44.331Z,99528.44
2023-01-02T06:16:12.436Z,99542.16
2023-01-02T06:18:41.174Z,99543.00
2023-01-02T06:21:12.240Z,99544.44
2023-01-02T06:23:40.593Z,99541.13
2023-01-02T06:26:20.387Z,99544.97
2023-01-02T06:28:51.996Z,99549.44
2023-01-02T06:31:21.346Z,99549.09
2023-01-02T06:33:49.099Z,99551.94
2023-01-02T06:36:19.130Z,99548.59
2023-01-02T06:38:47.726Z,99554.13
2023-01-02T06:41:16.118Z,99549.31
2023-01-02T06:43:52.815Z,99549.31
2023-01-02T06:46:22.804Z,99553.50
2023-01-02T06:48:51.105Z,99545.47
2023-01-02T06:51:22.354Z,99553.22
2023-01-02T06:53:50.144Z,99550.47
2023-01-02T06:56:19.488Z,99565.94
2023-01-02T06:58:47.225Z,99555.47
2023-01-02T07:01:20.536Z,99566.25
2023-01-02T07:03:49.078Z,99561.00
2023-01-02T07:06:23.375Z,99568.16
2023-01-02T07:08:51.017Z,99571.78
2023-01-02T07:11:22.225Z,99572.63
2023-01-02T07:13:52.298Z,99571.28
2023-01-02T07:16:21.983Z,99565.75
2023-01-02T07:18:49.925Z,99566.31
2023-01-02T07:21:19.127Z,99585.97
2023-01-02T07:23:47.094Z,99576.88
2023-01-02T07:26:15.330Z,99581.00
2023-01-02T07:28:43.050Z,99582.13
2023-01-02T07:31:15.890Z,99564.94
2023-01-02T07:33:44.087Z,99561.38
2023-01-02T07:36:15.100Z,99580.66
2023-01-02T07:38:42.770Z,99581.78
2023-01-02T07:41:18.438Z,99571.88
2023-01-02T07:43:47.086Z,99588.44
2023-01-02T07:46:17.286Z,99591.47
2023-01-02T07:48:45.863Z,99583.16
2023-01-02T07:51:16.413Z,99573.19
2023-01-02T07:53:46.204Z,99581.72
2023-01-02T07:56:14.022Z,99575.66
2023-01-02T07:58:41.677Z,99588.03
2023-01-02T08:01:13.905Z,99588.06
2023-01-02T08:03:42.219Z,99595.88
2023-01-02T08:06:13.080Z,99596.38
2023-01-02T08:08:41.493Z,99590.81
2023-01-02T08:11:12.383Z,99595.81
2023-01-02T08:13:40.084Z,99599.41
2023-01-02T08:16:16.354Z,99605.22
2023-01-02T08:18:44.520Z,99611.34
2023-01-02T08:21:12.775Z,99597.53
2023-01-02T08:23:41.677Z,99606.09
2023-01-02T08:26:11.957Z,99616.34
2023-01-02T08:28:41.531Z,99613.16
2023-01-02T08:31:16.059Z,99608.13
2023-01-02T08:33:44.013Z,99595.63
2023-01-02T08:36:12.258Z,99594.16
2023-01-02T08:38:39.885Z,99606.41
2023-01-02T08:41:08.302Z,99604.59
2023-01-02T08:43:37.339Z,99605.09
2023-01-02T08:46:10.089Z,99615.59
2023-01-02T08:48:37.934Z,99613.09
2023-01-02T08:51:06.895Z,99620.88
2023-01-02T08:53:34.586Z,99624.47
2023-01-02T08:56:22.516Z,99620.34
2023-01-02T08:58:58.447Z,99630.84
2023-01-02T09:01:27.367Z,99634.19
2023-01-02T09:03:55.946Z,99574.00
2023-01-02T09:06:25.966Z,99619.84
2023-01-02T09:08:55.490Z,99612.34
2023-01-02T09:11:29.420Z,99639.16
2023-01-02T09:13:59.568Z,99625.13
2023-01-02T09:16:27.795Z,99644.41
2023-01-02T09:18:57.846Z,99641.34
2023-01-02T09:21:25.629Z,99646.56
2023-01-02T09:23:53.420Z,99642.66
2023-01-02T09:26:21.515Z,99634.91
2023-01-02T09:28:49.201Z,99628.25
2023-01-02T09:31:18.513Z,99647.94
2023-01-02T09:33:48.154Z,99636.63
2023-01-02T09:36:19.085Z,99637.66
2023-01-02T09:38:52.743Z,99640.34
2023-01-02T09:41:32.318Z,99624.56
2023-01-02T09:44:14.589Z,99618.25
2023-01-02T09:46:57.121Z,99629.22
2023-01-02T09:49:30.644Z,99629.16
2023-01-02T09:51:58.638Z,99604.72
2023-01-02T09:54:30.078Z,99615.56
2023-01-02T09:57:28.040Z,99600.81
2023-01-02T10:00:06.180Z,99606.38
2023-01-02T10:03:11.408Z,99568.88
2023-01-02T10:05:42.027Z,99608.03
2023-01-02T10:08:32.260Z,99596.94
2023-01-02T10:11:36.065Z,99601.41
2023-01-02T10:14:20.300Z,99599.16
2023-01-02T10:16:54.188Z,99579.81
2023-01-02T10:19:34.526Z,99593.81
2023-01-02T10:22:03.828Z,99586.28
2023-01-02T10:24:46.717Z,99586.03
2023-01-02T10:27:19.417Z,99583.25
2023-01-02T10:30:02.170Z,99574.50
2023-01-02T10:32:32.976Z,99551.06
2023-01-02T10:35:03.520Z,99565.28
2023-01-02T10:37:31.263Z,99562.16
2023-01-02T10:39:59.224Z,99563.34
2023-01-02T10:42:27.170Z,99552.91
2023-01-02T10:44:54.881Z,99550.09
2023-01-02T10:47:25.709Z,99536.78
2023-01-02T10:49:54.629Z,99541.06
2023-01-02T10:52:48.148Z,99532.63
2023-01-02T10:55:30.701Z,99528.66
2023-01-02T10:58:23.454Z,99532.31
2023-01-02T11:00:56.512Z,99522.69
2023-01-02T11:03:26.122Z,99521.88
2023-01-02T11:06:02.179Z,99527.22
2023-01-02T11:08:40.570Z,99535.59
2023-01-02T11:11:15.763Z,99529.56
2023-01-02T11:13:53.786Z,99518.06
2023-01-02T11:16:24.042Z,99519.03
2023-01-02T11:18:54.919Z,99527.75
2023-01-02T11:21:43.998Z,99532.19
2023-01-02T11:24:16.873Z,99515.94
2023-01-02T11:26:51.701Z,99528.31
2023-01-02T11:29:37.008Z,99523.16
2023-01-02T11:32:05.192Z,99518.38
2023-01-02T11:34:39.224Z,99522.25
2023-01-02T11:37:17.077Z,99524.84
2023-01-02T11:39:59.111Z,99513.66
2023-01-02T11:43:07.692Z,99505.09
2023-01-02T11:45:36.579Z,99512.66
2023-01-02T11:48:10.953Z,99504.63
2023-01-02T11:50:39.520Z,99491.03
2023-01-02T11:53:19.862Z,99501.78
2023-01-02T11:55:56.352Z,99490.88
2023-01-02T11:58:30.086Z,99490.31
2023-01-02T12:01:06.748Z,99488.94
2023-01-02T12:03:34.980Z,99476.53
2023-01-02T12:06:24.575Z,99484.41
2023-01-02T12:09:11.306Z,99476.16
2023-01-02T12:12:01.854Z,99432.53
2023-01-02T12:14:54.303Z,99479.16
2023-01-02T12:17:43.656Z,99474.06
2023-01-02T12:20:11.237Z,99465.97
2023-01-02T12:22:57.085Z,99470.41
2023-01-02T12:25:42.757Z,99471.31
2023-01-02T12:29:00.928Z,99473.97
2023-01-02T12:31:35.142Z,99478.41
2023-01-02T12:34:21.899Z,99484.47
2023-01-02T12:37:04.446Z,99470.53
2023-01-02T12:39:44.320Z,99473.06
2023-01-02T12:42:39.827Z,99471.50
2023-01-02T12:45:24.048Z,99470.53
2023-01-02T12:48:16.097Z,99467.31
2023-01-02T12:50:49.076Z,99468.44
2023-01-02T12:53:39.662Z,99464.47
2023-01-02T12:56:22.742Z,99466.19
2023-01-02T12:59:22.911Z,99456.31
2023-01-02T13:01:55.232Z,99459.28
2023-01-02T13:04:29.501Z,99451.06
2023-01-02T13:07:05.966Z,99451.28
2023-01-02T13:09:38.911Z,99440.88
2023-01-02T13:12:14.451Z,99452.38
2023-01-02T13:14:54.977Z,99458.78
2023-01-02T13:17:41.512Z,99435.63
2023-01-02T13:20:21.137Z,99453.00
2023-01-02T13:23:11.625Z,99446.63
2023-01-02T13:25:48.266Z,99453.06
2023-01-02T13:28:17.963Z,99455.72
2023-01-02T13:31:11.247Z,99449.13
2023-01-02T13:33:47.666Z,99442.81
2023-01-02T13:36:37.966Z,99451.44
2023-01-02T13:39:18.599Z,99433.00
2023-01-02T13:42:13.342Z,99446.47
2023-01-02T13:44:45.487Z,99445.88
2023-01-02T13:47:34.084Z,99443.44
2023-01-02T13:50:32.567Z,99440.41
2023-01-02T13:53:12.635Z,99437.84
2023-01-02T13:55:43.254Z,99438.09
2023-01-02T13:58:18.288Z,99444.16
2023-01-02T14:00:54.272Z,99451.44
2023-01-02T14:03:23.202Z,99449.72
2023-01-02T14:06:26.509Z,99448.00
2023-01-02T14:09:06.270Z,99449.25
2023-01-02T14:11:55.914Z,99456.78
2023-01-02T14:14:42.925Z,99452.34
2023-01-02T14:17:32.376Z,99459.31
2023-01-02T14:20:18.282Z,99456.84
2023-01-02T14:22:50.399Z,99468.81
2023-01-02T14:25:19.171Z,99453.66
2023-01-02T14:27:54.485Z,99463.88
2023-01-02T14:30:36.176Z,99461.97
2023-01-02T14:33:07.362Z,99436.50
2023-01-02T14:35:49.892Z,99451.25
2023-01-02T14:38:19.829Z,99457.50
2023-01-02T14:40:48.513Z,99463.41
2023-01-02T14:43:36.456Z,99461.38
2023-01-02T14:46:14.275Z,99462.28
2023-01-02T14:49:24.876Z,99461.09
2023-01-02T14:52:06.519Z,99448.53
2023-01-02T14:55:00.816Z,99464.06
2023-01-02T14:57:35.484Z,99469.19
2023-01-02T15:00:18.773Z,99461.56
2023-01-02T15:02:49.591Z,99450.72
2023-01-02T15:05:34.554Z,99454.00
2023-01-02T15:08:05.353Z,99454.84
2023-01-02T15:10:33.171Z,99451.53
2023-01-02T15:13:04.344Z,99432.81
2023-01-02T15:15:44.627Z,99445.25
2023-01-02T15:18:24.334Z,99444.66
2023-01-02T15:20:55.961Z,99444.09
2023-01-02T15:23:27.055Z,99441.06
2023-01-02T15:26:33.453Z,99441.41
2023-01-02T15:28:43.480Z,99453.28
2023-01-02T15:31:16.525Z,99446.97
2023-01-02T15:33:44.231Z,99450.31
2023-01-02T15:36:19.158Z,99451.38
2023-01-02T15:38:47.918Z,99413.97
2023-01-02T15:41:20.692Z,99429.13
2023-01-02T15:44:08.868Z,99437.66
2023-01-02T15:46:36.717Z,99454.81
2023-01-02T15:49:05.094Z,99435.47
2023-01-02T15:51:39.733Z,99452.56
2023-01-02T15:54:14.384Z,99455.91
2023-01-02T15:56:43.014Z,99454.25
2023-01-02T15:59:32.105Z,99453.69
2023-01-02T16:01:59.824Z,99457.66
2023-01-02T16:04:35.152Z,99449.91
2023-01-02T16:07:16.036Z,99449.97
2023-01-02T16:09:56.553Z,99456.00
2023-01-02T16:12:24.827Z,99446.09
2023-01-02T16:14:57.215Z,99454.41
2023-01-02T16:17:31.428Z,99460.56
2023-01-02T16:20:07.383Z,99445.63
2023-01-02T16:23:04.456Z,99455.03
2023-01-02T16:25:35.280Z,99467.22
2023-01-02T16:28:34.835Z,99449.84
2023-01-02T16:31:16.568Z,99465.34
2023-01-02T16:33:45.852Z,99470.88
2023-01-02T16:36:16.490Z,99467.56
2023-01-02T16:39:00.475Z,99476.16
2023-01-02T16:41:35.011Z,99477.34
2023-01-02T16:44:03.683Z,99474.56
2023-01-02T16:46:31.898Z,99477.81
2023-01-02T16:49:05.034Z,99472.59
2023-01-02T16:51:33.613Z,99474.84
2023-01-02T16:54:01.461Z,99443.97
2023-01-02T16:56:29.228Z,99475.88
2023-01-02T16:58:56.915Z,99477.28
2023-01-02T17:01:25.405Z,99472.59
2023-01-02T17:03:53.161Z,99478.66
2023-01-02T17:06:21.529Z,99482.50
2023-01-02T17:08:49.153Z,99474.19
2023-01-02T17:11:19.553Z,99460.69
2023-01-02T17:13:47.164Z,99476.16
2023-01-02T17:16:15.354Z,99482.53
2023-01-02T17:18:43.500Z,99489.44
2023-01-02T17:21:12.548Z,99491.38
2023-01-02T17:23:40.359Z,99494.72
2023-01-02T17:26:08.118Z,99491.13
2023-01-02T17:28:36.740Z,99490.00
2023-01-02T17:31:04.528Z,99427.69
2023-01-02T17:33:32.199Z,99491.66
2023-01-02T17:35:59.816Z,99499.44
2023-01-02T17:38:27.471Z,99490.31
2023-01-02T17:40:59.180Z,99498.22
2023-01-02T17:43:27.256Z,99494.31
2023-01-02T17:45:54.993Z,99494.06
2023-01-02T17:48:25.027Z,99472.28
2023-01-02T17:50:54.735Z,99495.97
2023-01-02T17:53:22.639Z,99490.22
2023-01-02T17:56:21.525Z,99480.59
2023-01-02T17:58:46.791Z,99503.72
2023-01-02T18:01:19.832Z,99473.94
2023-01-02T18:03:48.199Z,99482.25
2023-01-02T18:06:17.177Z,99496.59
2023-01-02T18:08:45.557Z,99495.41
2023-01-02T18:11:16.018Z,99489.63
2023-01-02T18:13:49.330Z,99455.97
2023-01-02T18:16:22.096Z,99481.13
2023-01-02T18:18:51.553Z,99493.53
2023-01-02T18:21:22.689Z,99486.81
2023-01-02T18:23:54.721Z,99483.78
2023-01-02T18:26:22.829Z,99469.72
2023-01-02T18:28:57.035Z,99475.78
2023-01-02T18:31:26.157Z,99474.91
2023-01-02T18:33:57.980Z,99463.69
2023-01-02T18:36:26.326Z,99477.41
2023-01-02T18:39:11.359Z,99462.22
2023-01-02T18:41:39.930Z,99444.59
2023-01-02T18:44:34.116Z,99474.38
2023-01-02T18:47:26.831Z,99475.75
2023-01-02T18:49:56.251Z,99471.38
2023-01-02T18:52:33.229Z,99472.44
2023-01-02T18:55:16.751Z,99486.91
2023-01-02T18:57:56.005Z,99468.69
2023-01-02T19:00:31.440Z,99479.19
2023-01-02T19:03:03.152Z,99484.19
2023-01-02T19:05:40.695Z,99493.91
2023-01-02T19:08:23.867Z,99484.53
2023-01-02T19:10:56.802Z,99481.22
2023-01-02T19:13:33.564Z,99486.50
2023-01-02T19:16:06.583Z,99473.22
2023-01-02T19:18:35.584Z,99481.25
2023-01-02T19:21:17.582Z,99473.25
2023-01-02T19:23:45.174Z,99467.38
2023-01-02T19:26:31.253Z,99471.59
2023-01-02T19:29:08.533Z,99468.84
2023-01-02T19:31:43.670Z,99480.19
2023-01-02T19:34:35.574Z,99476.38
2023-01-02T19:37:12.078Z,99485.78
2023-01-02T19:39:48.408Z,99483.53
2023-01-02T19:42:23.016Z,99491.84
2023-01-02T19:44:56.644Z,99480.84
2023-01-02T19:47:27.683Z,99492.97
2023-01-02T19:49:55.521Z,99492.13
2023-01-02T19:52:23.876Z,99438.63
2023-01-02T19:54:52.392Z,99500.72
2023-01-02T19:57:20.758Z,99492.72
2023-01-02T19:59:50.019Z,99447.22
2023-01-02T20:02:22.959Z,99503.19
2023-01-02T20:04:53.761Z,99486.91
2023-01-02T20:07:22.993Z,99506.25
2023-01-02T20:09:51.252Z,99484.69
2023-01-02T20:12:32.713Z,99502.63
2023-01-02T20:15:05.730Z,99500.66
2023-01-02T20:17:34.420Z,99504.25
2023-01-02T20:20:02.405Z,99509.53
2023-01-02T20:22:30.566Z,99490.78
2023-01-02T20:24:59.137Z,99511.72
2023-01-02T20:27:27.027Z,99508.41
2023-01-02T20:29:55.225Z,99508.09
2023-01-02T20:32:23.874Z,99511.13
2023-01-02T20:34:52.505Z,99508.38
2023-01-02T20:37:21.156Z,99513.31
2023-01-02T20:39:53.669Z,99509.72
2023-01-02T20:42:22.289Z,99516.69
2023-01-02T20:44:50.594Z,99506.75
2023-01-02T20:47:18.721Z,99509.53
2023-01-02T20:49:46.500Z,99443.59
2023-01-02T20:52:14.214Z,99495.66
2023-01-02T20:54:42.001Z,99505.06
2023-01-02T20:57:12.070Z,99518.56
2023-01-02T20:59:39.834Z,99517.16
2023-01-02T21:02:07.635Z,99524.41
2023-01-02T21:04:37.250Z,99535.44
2023-01-02T21:07:06.803Z,99533.56
2023-01-02T21:09:34.873Z,99528.84
2023-01-02T21:12:02.536Z,99527.78
2023-01-02T21:14:37.178Z,99526.59
2023-01-02T21:17:05.595Z,99510.56
2023-01-02T21:19:33.248Z,99519.41
2023-01-02T21:22:00.958Z,99524.06
2023-01-02T21:24:28.603Z,99515.53
2023-01-02T21:26:56.237Z,99517.13
2023-01-02T21:29:23.900Z,99521.66
2023-01-02T21:31:51.569Z,99525.56
2023-01-02T21:34:19.285Z,99477.06
2023-01-02T21:36:46.926Z,99529.47
2023-01-02T21:39:14.621Z,99530.06
2023-01-02T21:41:59.756Z,99540.75
2023-01-02T21:44:27.487Z,99534.06
2023-01-02T21:46:55.205Z,99533.75
2023-01-02T21:49:22.887Z,99531.28
2023-01-02T21:51:52.741Z,99531.84
2023-01-02T21:54:20.426Z,99530.44
2023-01-02T21:56:48.139Z,99477.50
2023-01-02T21:59:15.862Z,99527.13
2023-01-02T22:01:43.668Z,99541.47
2023-01-02T22:04:12.025Z,99544.28
2023-01-02T22:07:04.365Z,99539.53
2023-01-02T22:09:28.504Z,99525.72
2023-01-02T22:11:56.159Z,99547.03
2023-01-02T22:14:32.619Z,99545.63
2023-01-02T22:17:04.533Z,99544.81
2023-01-02T22:19:32.707Z,99546.19
2023-01-02T22:22:02.218Z,99542.00
2023-01-02T22:24:30.300Z,99550.84
2023-01-02T22:27:01.897Z,99527.66
2023-01-02T22:30:00.350Z,99545.03
2023-01-02T22:32:18.066Z,99552.53
2023-01-02T22:34:46.081Z,99552.84
2023-01-02T22:37:22.033Z,99552.25
2023-01-02T22:39:50.388Z,99556.34
2023-01-02T22:45:30.017Z,99548.69
2023-01-02T22:48:02.759Z,99550.94
2023-01-02T22:50:36.824Z,99532.63
2023-01-02T22:53:08.032Z,99547.75
2023-01-02T22:55:35.720Z,99538.91
2023-01-02T22:58:03.340Z,99540.56
2023-01-02T23:00:31.097Z,99524.91
2023-01-02T23:02:58.764Z,99536.44
2023-01-02T23:05:26.595Z,99530.59
2023-01-02T23:07:54.259Z,99511.06
2023-01-02T23:10:21.981Z,99527.81
2023-01-02T23:12:49.686Z,99519.81
2023-01-02T23:15:17.459Z,99527.53
2023-01-02T23:18:03.255Z,99514.28
2023-01-02T23:20:30.972Z,99519.28
2023-01-02T23:22:58.631Z,99509.31
2023-01-02T23:25:26.653Z,99490.25
2023-01-02T23:27:54.490Z,99497.16
2023-01-02T23:30:22.269Z,99518.41
2023-01-02T23:32:49.892Z,99514.81
2023-01-02T23:35:17.683Z,99506.34
2023-01-02T23:37:45.336Z,99494.72
2023-01-02T23:40:13.438Z,99521.53
2023-01-02T23:42:41.047Z,99519.34
2023-01-02T23:45:09.083Z,99523.75
2023-01-02T23:47:36.770Z,99518.50
2023-01-02T23:50:04.546Z,99505.50
2023-01-02T23:52:32.197Z,99520.13
2023-01-02T23:54:59.873Z,99524.81
2023-01-02T23:57:27.521Z,99517.91
2023-01-02T23:59:55.171Z,99516.84
